Time;durP1;ratioP1;P1;durP2;ratioP2;P2;SDS_P1;SDS_P2;PMS_P1;PMS_P2;Temp;Humidity;BMP_temperature;BMP_pressure;BME280_temperature;BME280_humidity;BME280_pressure;Samples;Min_cycle;Max_cycle;Signal;HPM_P1;HPM_P2
2022/11/26 00:00:53;;;;;;;14.32;7.82;;;;;;;;;;5001256;28;20038;-78
2022/11/26 00:03:19;;;;;;;13.90;7.88;;;;;;;;;;4995180;28;20140;-78
2022/11/26 00:05:47;;;;;;;15.13;6.93;;;;;;;;;;5001600;28;20049;-78
2022/11/26 00:08:21;;;;;;;16.65;7.15;;;;;;;;;;4994815;28;20042;-78
2022/11/26 00:10:51;;;;;;;13.63;7.97;;;;;;;;;;5003891;28;20070;-78
2022/11/26 00:13:20;;;;;;;11.55;7.18;;;;;;;;;;4994905;28;20046;-78
2022/11/26 00:15:47;;;;;;;10.45;6.80;;;;;;;;;;4992879;28;20043;-77
2022/11/26 00:18:14;;;;;;;13.73;6.93;;;;;;;;;;4993433;28;20156;-78
2022/11/26 00:20:40;;;;;;;11.82;6.47;;;;;;;;;;4993998;28;20050;-78
2022/11/26 00:23:07;;;;;;;19.80;7.40;;;;;;;;;;4995126;28;20142;-77
2022/11/26 00:25:40;;;;;;;12.00;6.65;;;;;;;;;;5002319;28;21308;-78
2022/11/26 00:28:27;;;;;;;13.90;7.38;;;;;;;;;;4994667;28;20042;-78
2022/11/26 00:30:55;;;;;;;12.15;7.05;;;;;;;;;;4993231;28;20121;-78
2022/11/26 00:33:21;;;;;;;13.13;7.68;;;;;;;;;;4993718;28;20050;-78
2022/11/26 00:35:48;;;;;;;15.68;7.07;;;;;;;;;;4994809;28;20065;-78
2022/11/26 00:38:16;;;;;;;11.02;6.90;;;;;;;;;;4994559;28;20129;-78
2022/11/26 00:40:42;;;;;;;13.88;7.43;;;;;;;;;;4994206;28;20046;-78
2022/11/26 00:43:10;;;;;;;13.50;7.13;;;;;;;;;;4991358;28;20046;-78
2022/11/26 00:45:36;;;;;;;13.32;5.95;;;;;;;;;;4993952;28;20042;-78
2022/11/26 00:48:03;;;;;;;10.90;6.10;;;;;;;;;;4994276;28;20499;-78
2022/11/26 00:50:31;;;;;;;13.00;7.55;;;;;;;;;;4993670;28;20496;-78
2022/11/26 00:52:57;;;;;;;10.10;6.43;;;;;;;;;;4992367;28;20054;-79
2022/11/26 00:55:37;;;;;;;12.48;7.45;;;;;;;;;;5000556;28;20053;-79
2022/11/26 00:58:03;;;;;;;13.38;7.05;;;;;;;;;;4995460;28;20042;-78
2022/11/26 01:00:30;;;;;;;17.88;6.40;;;;;;;;;;4990561;28;20155;-78
2022/11/26 01:02:57;;;;;;;11.50;5.90;;;;;;;;;;4993548;28;20043;-78
2022/11/26 01:05:24;;;;;;;9.85;6.60;;;;;;;;;;4993582;28;20441;-78
2022/11/26 01:07:51;;;;;;;11.82;7.22;;;;;;;;;;4991298;28;21467;-78
2022/11/26 01:10:22;;;;;;;15.13;5.40;;;;;;;;;;4992215;28;20046;-78
2022/11/26 01:12:48;;;;;;;11.32;6.03;;;;;;;;;;4994489;28;20050;-79
2022/11/26 01:15:15;;;;;;;11.77;6.63;;;;;;;;;;5002079;28;20054;-78
2022/11/26 01:17:41;;;;;;;8.70;5.10;;;;;;;;;;4993587;28;20035;-78
2022/11/26 01:20:27;;;;;;;16.02;7.20;;;;;;;;;;5002085;28;20137;-78
2022/11/26 01:22:54;;;;;;;12.65;6.05;;;;;;;;;;4991360;28;20157;-78
2022/11/26 01:25:21;;;;;;;15.25;7.57;;;;;;;;;;4995072;28;20157;-78
2022/11/26 01:27:47;;;;;;;14.23;5.82;;;;;;;;;;4993200;28;20475;-78
2022/11/26 01:30:19;;;;;;;11.43;6.82;;;;;;;;;;4993553;28;20129;-78
2022/11/26 01:32:45;;;;;;;11.68;6.22;;;;;;;;;;4995197;28;20047;-78
2022/11/26 01:35:11;;;;;;;17.02;6.22;;;;;;;;;;4992986;28;20061;-78
2022/11/26 01:37:37;;;;;;;13.85;6.20;;;;;;;;;;5027238;28;20520;-78
2022/11/26 01:40:04;;;;;;;8.65;4.47;;;;;;;;;;4994422;28;20149;-78
2022/11/26 01:42:30;;;;;;;12.27;6.18;;;;;;;;;;4995928;28;20069;-78
2022/11/26 01:44:56;;;;;;;11.30;6.13;;;;;;;;;;4995882;28;20525;-78
2022/11/26 01:47:27;;;;;;;12.48;5.88;;;;;;;;;;4996827;28;20074;-78
2022/11/26 01:50:12;;;;;;;9.07;5.55;;;;;;;;;;5005858;28;20066;-78
2022/11/26 01:52:38;;;;;;;7.90;5.47;;;;;;;;;;5017119;28;20054;-78
2022/11/26 01:55:04;;;;;;;7.25;4.88;;;;;;;;;;4996919;28;20104;-78
2022/11/26 01:57:32;;;;;;;8.30;4.75;;;;;;;;;;5005272;28;20551;-77
2022/11/26 02:00:03;;;;;;;7.03;4.43;;;;;;;;;;4995340;28;20046;-78
2022/11/26 02:02:29;;;;;;;8.32;4.43;;;;;;;;;;4999896;28;20069;-78
2022/11/26 02:05:14;;;;;;;9.10;5.32;;;;;;;;;;4999618;28;20042;-77
2022/11/26 02:07:40;;;;;;;8.95;5.07;;;;;;;;;;5000125;28;20489;-77
2022/11/26 02:10:06;;;;;;;8.23;4.68;;;;;;;;;;5000924;28;20070;-78
2022/11/26 02:12:33;;;;;;;8.73;5.57;;;;;;;;;;4997051;28;20962;-77
2022/11/26 02:14:59;;;;;;;7.72;5.40;;;;;;;;;;4997577;28;20062;-78
2022/11/26 02:17:25;;;;;;;11.23;4.88;;;;;;;;;;4993653;28;20069;-77
2022/11/26 02:20:10;;;;;;;10.05;5.10;;;;;;;;;;4995703;28;20133;-78
2022/11/26 02:22:54;;;;;;;7.63;5.00;;;;;;;;;;5002903;28;20050;-77
2022/11/26 02:25:29;;;;;;;9.23;5.60;;;;;;;;;;4994394;28;21015;-77
2022/11/26 02:27:55;;;;;;;7.55;5.55;;;;;;;;;;4995646;28;20050;-78
2022/11/26 02:30:22;;;;;;;7.97;4.93;;;;;;;;;;4988066;28;20043;-78
2022/11/26 02:32:53;;;;;;;9.95;6.93;;;;;;;;;;5002389;28;20050;-77
2022/11/26 02:35:25;;;;;;;11.80;6.75;;;;;;;;;;4992216;28;20069;-77
2022/11/26 02:37:52;;;;;;;;;;;;;;;;;;4994869;28;20048;-78
2022/11/26 02:40:18;;;;;;;7.93;5.72;;;;;;;;;;4996997;28;19925;-77
2022/11/26 02:42:44;;;;;;;10.15;4.63;;;;;;;;;;4997257;28;20057;-78
2022/11/26 02:45:15;;;;;;;10.10;4.95;;;;;;;;;;4994453;28;20331;-77
2022/11/26 02:47:44;;;;;;;8.43;5.15;;;;;;;;;;5003791;28;20086;-77
2022/11/26 02:50:12;;;;;;;11.70;5.65;;;;;;;;;;4995805;28;20125;-77
2022/11/26 02:52:40;;;;;;;9.98;6.43;;;;;;;;;;4996575;28;20046;-77
2022/11/26 02:55:06;;;;;;;12.23;5.45;;;;;;;;;;4994459;28;20054;-78
2022/11/26 02:57:36;;;;;;;7.70;5.00;;;;;;;;;;4996227;28;20049;-77
2022/11/26 03:00:03;;;;;;;9.90;4.55;;;;;;;;;;4993906;28;20959;-77
2022/11/26 03:02:33;;;;;;;14.05;5.60;;;;;;;;;;4993039;28;20050;-77
2022/11/26 03:05:01;;;;;;;9.07;5.20;;;;;;;;;;4993521;28;20074;-77
2022/11/26 03:07:29;;;;;;;9.65;4.90;;;;;;;;;;5003829;28;20046;-77
2022/11/26 03:10:00;;;;;;;8.18;4.43;;;;;;;;;;4996248;28;20050;-77
2022/11/26 03:12:26;;;;;;;7.28;4.82;;;;;;;;;;4996904;28;20051;-77
2022/11/26 03:14:52;;;;;;;6.47;4.60;;;;;;;;;;5003973;28;20039;-77
2022/11/26 03:17:19;;;;;;;8.00;5.40;;;;;;;;;;5003972;28;20077;-78
2022/11/26 03:19:45;;;;;;;9.38;4.95;;;;;;;;;;4997875;28;20108;-77
2022/11/26 03:22:12;;;;;;;9.32;4.22;;;;;;;;;;4998046;28;20062;-76
2022/11/26 03:24:38;;;;;;;8.60;4.28;;;;;;;;;;4996766;28;20240;-76
2022/11/26 03:27:04;;;;;;;8.05;4.53;;;;;;;;;;4996002;28;20050;-77
2022/11/26 03:29:30;;;;;;;21.38;6.93;;;;;;;;;;4996470;28;20114;-77
2022/11/26 03:31:58;;;;;;;8.85;4.93;;;;;;;;;;4996128;28;20115;-77
2022/11/26 03:34:24;;;;;;;14.65;6.10;;;;;;;;;;4994035;28;20057;-77
2022/11/26 03:36:51;;;;;;;19.92;6.70;;;;;;;;;;4993588;28;20547;-77
2022/11/26 03:39:17;;;;;;;10.20;5.75;;;;;;;;;;5004274;28;20680;-77
2022/11/26 03:41:43;;;;;;;15.55;5.35;;;;;;;;;;5003058;28;20125;-77
2022/11/26 03:44:10;;;;;;;14.73;5.72;;;;;;;;;;5001838;28;20521;-76
2022/11/26 03:46:36;;;;;;;19.63;6.55;;;;;;;;;;4995457;28;20642;-77
2022/11/26 03:49:02;;;;;;;10.88;5.05;;;;;;;;;;5004501;28;20136;-77
2022/11/26 03:51:28;;;;;;;10.25;4.88;;;;;;;;;;4991706;28;20097;-77
2022/11/26 03:53:54;;;;;;;24.13;5.50;;;;;;;;;;5003633;28;20035;-77
2022/11/26 03:56:20;;;;;;;16.15;4.82;;;;;;;;;;4993186;28;20445;-77
2022/11/26 03:58:46;;;;;;;13.60;4.85;;;;;;;;;;5003222;28;20037;-77
2022/11/26 04:01:13;;;;;;;8.63;4.03;;;;;;;;;;4994736;28;20058;-77
2022/11/26 04:03:39;;;;;;;10.05;6.43;;;;;;;;;;4991981;28;20047;-78
2022/11/26 04:06:06;;;;;;;19.83;6.88;;;;;;;;;;4993989;28;20116;-77
2022/11/26 04:08:32;;;;;;;16.67;5.18;;;;;;;;;;4993673;28;20038;-78
2022/11/26 04:10:58;;;;;;;15.07;6.35;;;;;;;;;;5003340;28;20039;-77
2022/11/26 04:13:24;;;;;;;13.68;4.35;;;;;;;;;;4993581;28;20050;-78
2022/11/26 04:15:50;;;;;;;8.88;5.70;;;;;;;;;;4991369;28;20049;-77
2022/11/26 04:18:16;;;;;;;14.20;5.50;;;;;;;;;;5000547;28;20069;-79
2022/11/26 04:20:42;;;;;;;8.38;4.88;;;;;;;;;;4994145;28;20516;-77
2022/11/26 04:23:08;;;;;;;7.88;4.22;;;;;;;;;;4997148;28;20053;-77
2022/11/26 04:25:35;;;;;;;10.73;4.50;;;;;;;;;;4985640;28;20469;-78
2022/11/26 04:28:01;;;;;;;9.98;4.43;;;;;;;;;;4999436;28;20034;-77
2022/11/26 04:30:27;;;;;;;9.93;3.78;;;;;;;;;;4992818;28;20050;-78
2022/11/26 04:32:53;;;;;;;19.35;4.82;;;;;;;;;;4991428;28;20477;-78
2022/11/26 04:35:19;;;;;;;9.23;4.70;;;;;;;;;;4992088;28;20599;-78
2022/11/26 04:37:45;;;;;;;9.88;4.28;;;;;;;;;;4993109;28;20047;-77
2022/11/26 04:40:11;;;;;;;12.13;5.28;;;;;;;;;;5002855;28;20051;-78
2022/11/26 04:42:37;;;;;;;9.18;4.70;;;;;;;;;;4993821;28;20036;-77
2022/11/26 04:45:04;;;;;;;8.88;4.13;;;;;;;;;;4994487;28;20047;-77
2022/11/26 04:47:30;;;;;;;10.18;3.78;;;;;;;;;;5000534;28;20042;-77
2022/11/26 04:49:56;;;;;;;9.98;4.20;;;;;;;;;;4999227;28;20145;-78
2022/11/26 04:52:22;;;;;;;9.05;3.97;;;;;;;;;;4998992;28;20042;-79
2022/11/26 04:54:48;;;;;;;5.57;3.80;;;;;;;;;;4998038;28;20042;-77
2022/11/26 04:57:14;;;;;;;6.07;3.60;;;;;;;;;;4999764;28;20038;-78
2022/11/26 04:59:40;;;;;;;8.80;4.13;;;;;;;;;;4991882;28;20051;-78
2022/11/26 05:02:06;;;;;;;10.27;3.97;;;;;;;;;;4988237;28;20046;-78
2022/11/26 05:04:32;;;;;;;9.10;4.25;;;;;;;;;;4991901;28;20066;-77
2022/11/26 05:06:59;;;;;;;8.20;3.65;;;;;;;;;;4997532;28;20160;-78
2022/11/26 05:09:25;;;;;;;9.25;3.47;;;;;;;;;;4990985;28;20094;-78
2022/11/26 05:11:51;;;;;;;8.35;4.00;;;;;;;;;;5000902;28;20057;-77
2022/11/26 05:14:17;;;;;;;8.73;3.45;;;;;;;;;;4992259;28;20049;-78
2022/11/26 05:16:43;;;;;;;15.52;5.35;;;;;;;;;;5002914;28;20070;-77
2022/11/26 05:19:09;;;;;;;9.52;4.47;;;;;;;;;;4991442;28;20072;-78
2022/11/26 05:21:35;;;;;;;7.03;4.18;;;;;;;;;;5001229;28;20165;-78
2022/11/26 05:24:01;;;;;;;9.68;4.35;;;;;;;;;;4992590;28;20058;-78
2022/11/26 05:26:27;;;;;;;7.38;3.88;;;;;;;;;;4993974;28;20113;-77
2022/11/26 05:28:53;;;;;;;7.78;3.60;;;;;;;;;;4993166;28;20042;-77
2022/11/26 05:31:19;;;;;;;5.07;3.70;;;;;;;;;;4983986;28;20093;-78
2022/11/26 05:33:46;;;;;;;6.60;3.47;;;;;;;;;;4992338;28;20047;-78
2022/11/26 05:36:12;;;;;;;9.40;4.13;;;;;;;;;;4987983;28;20053;-77
2022/11/26 05:38:38;;;;;;;6.30;3.38;;;;;;;;;;4983772;28;20049;-78
2022/11/26 05:41:04;;;;;;;5.85;3.28;;;;;;;;;;4996419;28;20162;-78
2022/11/26 05:43:30;;;;;;;6.88;3.17;;;;;;;;;;5000632;28;20209;-77
2022/11/26 05:45:56;;;;;;;6.72;3.30;;;;;;;;;;4994027;28;20041;-78
2022/11/26 05:48:22;;;;;;;7.88;4.10;;;;;;;;;;4992379;28;20039;-77
2022/11/26 05:50:48;;;;;;;6.35;4.10;;;;;;;;;;4992878;28;20629;-78
2022/11/26 05:53:14;;;;;;;5.10;3.63;;;;;;;;;;4999891;28;20532;-77
2022/11/26 05:55:40;;;;;;;12.32;3.97;;;;;;;;;;4980148;28;22286;-77
2022/11/26 05:58:08;;;;;;;7.18;3.78;;;;;;;;;;4991909;28;20054;-77
2022/11/26 06:00:35;;;;;;;7.20;3.75;;;;;;;;;;4993405;28;20043;-77
2022/11/26 06:03:01;;;;;;;7.85;3.95;;;;;;;;;;4990695;28;20054;-77
2022/11/26 06:05:27;;;;;;;8.55;3.45;;;;;;;;;;4990531;28;20034;-77
2022/11/26 06:07:53;;;;;;;7.75;4.28;;;;;;;;;;4989712;28;20070;-77
2022/11/26 06:10:19;;;;;;;7.70;4.32;;;;;;;;;;4989754;28;20070;-77
2022/11/26 06:12:45;;;;;;;6.75;3.90;;;;;;;;;;4992567;28;20045;-77
2022/11/26 06:15:11;;;;;;;10.80;4.00;;;;;;;;;;4998134;28;20166;-77
2022/11/26 06:17:38;;;;;;;10.73;4.97;;;;;;;;;;4991292;28;20100;-78
2022/11/26 06:20:04;;;;;;;8.15;4.28;;;;;;;;;;4993746;28;20058;-78
2022/11/26 06:22:31;;;;;;;6.75;4.18;;;;;;;;;;4999616;28;20046;-77
2022/11/26 06:24:57;;;;;;;7.40;3.78;;;;;;;;;;5023774;28;20465;-77
2022/11/26 06:27:23;;;;;;;8.02;4.30;;;;;;;;;;4993830;28;20596;-77
2022/11/26 06:29:49;;;;;;;7.18;4.00;;;;;;;;;;5003971;28;20523;-82
2022/11/26 06:32:15;;;;;;;8.27;4.80;;;;;;;;;;4995403;28;20048;-81
2022/11/26 06:34:41;;;;;;;6.30;4.47;;;;;;;;;;5004014;28;20062;-78
2022/11/26 06:37:07;;;;;;;9.50;5.07;;;;;;;;;;4994504;28;20074;-80
2022/11/26 06:39:33;;;;;;;7.65;4.53;;;;;;;;;;5001934;28;20101;-79
2022/11/26 06:41:59;;;;;;;6.57;4.07;;;;;;;;;;5003793;28;20086;-78
2022/11/26 06:44:25;;;;;;;7.95;3.40;;;;;;;;;;4995210;28;20049;-77
2022/11/26 06:46:51;;;;;;;9.65;3.90;;;;;;;;;;4995584;28;20755;-77
2022/11/26 06:49:17;;;;;;;5.22;3.92;;;;;;;;;;4994878;28;20050;-87
2022/11/26 06:51:43;;;;;;;7.32;3.63;;;;;;;;;;5001953;28;20045;-77
2022/11/26 06:54:09;;;;;;;7.03;3.92;;;;;;;;;;4989492;28;20121;-78
2022/11/26 06:56:36;;;;;;;5.05;3.58;;;;;;;;;;4990149;28;20082;-80
2022/11/26 06:59:02;;;;;;;9.40;3.13;;;;;;;;;;4987265;28;20457;-78
2022/11/26 07:01:28;;;;;;;6.13;3.65;;;;;;;;;;4999462;28;20199;-78
2022/11/26 07:03:54;;;;;;;5.53;3.63;;;;;;;;;;5002314;28;20038;-78
2022/11/26 07:06:21;;;;;;;7.22;4.35;;;;;;;;;;4992424;28;20157;-78
2022/11/26 07:08:47;;;;;;;6.28;3.92;;;;;;;;;;4987993;28;20094;-78
2022/11/26 07:11:14;;;;;;;8.52;4.47;;;;;;;;;;4999431;28;20637;-78
2022/11/26 07:13:40;;;;;;;8.77;3.95;;;;;;;;;;5001980;28;20038;-78
2022/11/26 07:16:06;;;;;;;7.72;4.43;;;;;;;;;;5002530;28;20555;-78
2022/11/26 07:18:32;;;;;;;6.65;3.95;;;;;;;;;;4985186;28;20047;-78
2022/11/26 07:21:04;;;;;;;5.30;3.50;;;;;;;;;;4986777;28;20038;-78
2022/11/26 07:23:30;;;;;;;7.18;4.15;;;;;;;;;;4989535;28;20085;-78
2022/11/26 07:25:58;;;;;;;7.88;3.03;;;;;;;;;;4998407;28;20042;-78
2022/11/26 07:28:24;;;;;;;10.35;3.70;;;;;;;;;;4992189;28;20038;-79
2022/11/26 07:30:50;;;;;;;7.88;3.08;;;;;;;;;;5000254;28;20209;-77
2022/11/26 07:33:16;;;;;;;7.45;3.50;;;;;;;;;;4994955;28;20047;-78
2022/11/26 07:35:42;;;;;;;8.70;3.72;;;;;;;;;;4990140;28;20057;-79
2022/11/26 07:38:08;;;;;;;7.70;3.88;;;;;;;;;;4991770;28;20062;-81
2022/11/26 07:40:34;;;;;;;5.03;3.20;;;;;;;;;;4987200;28;20840;-82
2022/11/26 07:43:01;;;;;;;12.77;4.68;;;;;;;;;;4992263;28;20541;-79
2022/11/26 07:45:27;;;;;;;9.55;4.35;;;;;;;;;;4992983;28;20762;-80
2022/11/26 07:47:53;;;;;;;9.65;4.20;;;;;;;;;;4993146;28;20677;-79
2022/11/26 07:50:19;;;;;;;7.82;5.45;;;;;;;;;;5002562;28;20512;-79
2022/11/26 07:52:45;;;;;;;7.68;4.03;;;;;;;;;;4995781;28;20050;-79
2022/11/26 07:55:11;;;;;;;11.27;4.10;;;;;;;;;;4992503;28;20050;-79
2022/11/26 07:57:37;;;;;;;6.10;4.07;;;;;;;;;;4991907;28;20047;-79
2022/11/26 08:00:04;;;;;;;5.97;3.72;;;;;;;;;;4993359;28;20492;-78
2022/11/26 08:02:30;;;;;;;7.75;5.85;;;;;;;;;;4987042;28;21261;-79
2022/11/26 08:04:56;;;;;;;9.05;5.07;;;;;;;;;;4991224;28;21341;-79
2022/11/26 08:07:22;;;;;;;9.63;4.93;;;;;;;;;;4994550;28;20243;-79
2022/11/26 08:09:48;;;;;;;8.70;4.78;;;;;;;;;;4996726;28;20046;-79
2022/11/26 08:12:14;;;;;;;9.77;4.78;;;;;;;;;;4990499;28;20129;-79
2022/11/26 08:14:40;;;;;;;9.70;4.57;;;;;;;;;;4986419;28;20051;-80
2022/11/26 08:17:06;;;;;;;8.18;5.10;;;;;;;;;;5007265;28;20048;-79
2022/11/26 08:19:32;;;;;;;7.20;4.43;;;;;;;;;;4984465;28;20130;-79
2022/11/26 08:21:58;;;;;;;8.48;4.22;;;;;;;;;;4992745;28;20038;-78
2022/11/26 08:24:24;;;;;;;10.07;4.55;;;;;;;;;;4988612;28;20058;-79
2022/11/26 08:26:50;;;;;;;9.07;5.20;;;;;;;;;;5001791;28;20050;-79
2022/11/26 08:29:16;;;;;;;8.73;4.57;;;;;;;;;;4990530;28;20085;-77
2022/11/26 08:31:43;;;;;;;9.40;4.63;;;;;;;;;;5002189;28;20038;-78
2022/11/26 08:34:13;;;;;;;9.45;4.65;;;;;;;;;;4993906;28;20097;-78
2022/11/26 08:36:39;;;;;;;17.13;4.70;;;;;;;;;;4996685;28;20568;-79
2022/11/26 08:39:06;;;;;;;12.45;5.28;;;;;;;;;;5000914;28;20039;-79
2022/11/26 08:41:32;;;;;;;12.85;3.65;;;;;;;;;;4993154;28;20047;-80
2022/11/26 08:43:58;;;;;;;13.15;4.75;;;;;;;;;;4993270;28;20150;-79
2022/11/26 08:46:24;;;;;;;9.05;4.63;;;;;;;;;;5003813;28;20160;-79
2022/11/26 08:48:50;;;;;;;7.88;4.70;;;;;;;;;;4999557;28;20042;-79
2022/11/26 08:51:17;;;;;;;13.15;5.32;;;;;;;;;;4993556;28;20182;-80
2022/11/26 08:53:44;;;;;;;12.38;5.40;;;;;;;;;;4991996;28;20066;-79
2022/11/26 08:56:11;;;;;;;13.30;6.20;;;;;;;;;;4993550;28;20070;-79
2022/11/26 08:58:39;;;;;;;12.30;4.90;;;;;;;;;;4998605;28;20209;-79
2022/11/26 09:01:08;;;;;;;13.50;5.38;;;;;;;;;;4984389;28;20059;-79
2022/11/26 09:03:34;;;;;;;11.23;6.40;;;;;;;;;;4990390;28;20611;-79
2022/11/26 09:06:01;;;;;;;10.07;5.30;;;;;;;;;;5000463;28;20126;-79
2022/11/26 09:08:28;;;;;;;10.32;5.40;;;;;;;;;;4988335;28;20038;-79
2022/11/26 09:10:54;;;;;;;13.10;5.75;;;;;;;;;;4989580;28;20603;-80
2022/11/26 09:13:21;;;;;;;15.43;6.63;;;;;;;;;;4990963;28;20050;-79
2022/11/26 09:15:48;;;;;;;10.60;5.95;;;;;;;;;;4996591;28;20676;-79
2022/11/26 09:18:14;;;;;;;10.30;5.78;;;;;;;;;;4983228;28;20042;-83
2022/11/26 09:20:40;;;;;;;9.57;5.10;;;;;;;;;;4985189;28;20054;-80
2022/11/26 09:23:06;;;;;;;11.57;5.78;;;;;;;;;;4991161;28;20046;-81
2022/11/26 09:25:32;;;;;;;10.48;5.43;;;;;;;;;;4998364;28;20061;-81
2022/11/26 09:27:58;;;;;;;11.73;5.75;;;;;;;;;;4998187;28;20042;-80
2022/11/26 09:30:24;;;;;;;14.45;6.07;;;;;;;;;;5001669;28;20618;-81
2022/11/26 09:32:50;;;;;;;11.77;6.65;;;;;;;;;;5015991;28;20415;-81
2022/11/26 09:35:16;;;;;;;12.88;6.57;;;;;;;;;;4997959;28;20130;-81
2022/11/26 09:37:42;;;;;;;12.88;6.45;;;;;;;;;;4988659;28;20085;-81
2022/11/26 09:40:10;;;;;;;12.55;6.18;;;;;;;;;;4993394;28;20082;-80
2022/11/26 09:42:51;;;;;;;11.68;5.20;;;;;;;;;;4984657;28;20053;-79
2022/11/26 09:45:27;;;;;;;10.75;5.00;;;;;;;;;;4985887;28;20054;-80
2022/11/26 09:47:54;;;;;;;12.05;4.82;;;;;;;;;;4988864;28;20493;-80
2022/11/26 09:50:26;;;;;;;14.35;5.00;;;;;;;;;;4980746;28;20054;-80
2022/11/26 09:52:59;;;;;;;7.20;4.38;;;;;;;;;;5000612;28;20437;-80
2022/11/26 09:55:33;;;;;;;8.02;4.78;;;;;;;;;;4990443;28;20073;-80
2022/11/26 09:58:14;;;;;;;11.10;4.75;;;;;;;;;;4993062;28;20038;-81
2022/11/26 10:00:42;;;;;;;11.13;6.35;;;;;;;;;;4995374;28;20078;-81
2022/11/26 10:03:19;;;;;;;9.20;5.75;;;;;;;;;;5002360;28;20048;-81
2022/11/26 10:06:01;;;;;;;9.77;4.97;;;;;;;;;;4995073;28;20042;-81
2022/11/26 10:08:27;;;;;;;18.98;6.40;;;;;;;;;;4990425;28;20046;-80
2022/11/26 10:11:00;;;;;;;9.45;5.57;;;;;;;;;;5006871;28;20093;-83
2022/11/26 10:13:38;;;;;;;9.23;5.53;;;;;;;;;;4989934;28;20046;-80
2022/11/26 10:16:17;;;;;;;6.28;3.88;;;;;;;;;;4991594;28;20128;-80
2022/11/26 10:19:06;;;;;;;8.27;4.35;;;;;;;;;;4995001;28;20566;-79
2022/11/26 10:21:34;;;;;;;11.95;6.72;;;;;;;;;;4992898;28;20144;-78
2022/11/26 10:24:04;;;;;;;8.32;5.32;;;;;;;;;;4990285;28;20409;-80
2022/11/26 10:26:33;;;;;;;9.45;4.85;;;;;;;;;;4992123;28;20595;-80
2022/11/26 10:29:17;;;;;;;10.23;4.97;;;;;;;;;;4989301;28;20117;-80
2022/11/26 10:31:45;;;;;;;7.28;3.88;;;;;;;;;;4990250;28;20042;-79
2022/11/26 10:34:17;;;;;;;8.85;5.63;;;;;;;;;;4992471;28;21301;-79
2022/11/26 10:36:43;;;;;;;;;;;;;;;;;;4988129;28;20043;-77
2022/11/26 10:39:13;;;;;;;10.85;4.95;;;;;;;;;;4991008;28;19925;-78
2022/11/26 10:41:39;;;;;;;8.73;4.90;;;;;;;;;;4994914;28;20570;-78
2022/11/26 10:44:24;;;;;;;9.07;4.13;;;;;;;;;;4991666;28;20545;-79
2022/11/26 10:46:50;;;;;;;8.48;4.68;;;;;;;;;;5005128;28;20034;-78
2022/11/26 10:49:24;;;;;;;7.10;3.45;;;;;;;;;;4982672;28;20070;-78
2022/11/26 10:51:53;;;;;;;5.95;3.95;;;;;;;;;;4994920;28;20045;-79
2022/11/26 10:54:28;;;;;;;9.18;3.85;;;;;;;;;;4987229;28;20043;-80
2022/11/26 10:56:55;;;;;;;9.38;5.03;;;;;;;;;;4987267;28;20058;-78
2022/11/26 10:59:38;;;;;;;6.95;4.45;;;;;;;;;;4990332;28;20798;-77
2022/11/26 11:02:17;;;;;;;8.82;5.05;;;;;;;;;;4985838;28;20097;-76
2022/11/26 11:04:44;;;;;;;9.77;4.57;;;;;;;;;;4993255;28;20047;-79
2022/11/26 11:07:29;;;;;;;10.07;5.78;;;;;;;;;;4996004;28;20047;-77
2022/11/26 11:10:24;;;;;;;6.78;4.20;;;;;;;;;;4991504;28;20103;-77
2022/11/26 11:12:59;;;;;;;8.95;5.45;;;;;;;;;;4990038;28;20074;-78
2022/11/26 11:15:27;;;;;;;9.75;5.20;;;;;;;;;;5005740;28;20089;-78
2022/11/26 11:17:55;;;;;;;6.60;4.03;;;;;;;;;;4996953;28;20126;-77
2022/11/26 11:20:40;;;;;;;5.30;3.13;;;;;;;;;;4995215;28;20054;-77
2022/11/26 11:23:17;;;;;;;11.00;4.38;;;;;;;;;;4997634;28;20091;-78
2022/11/26 11:25:47;;;;;;;6.45;4.00;;;;;;;;;;4995376;28;20046;-78
2022/11/26 11:28:19;;;;;;;8.90;5.22;;;;;;;;;;5003592;28;20710;-79
2022/11/26 11:30:45;;;;;;;8.48;4.53;;;;;;;;;;4995594;28;20038;-78
2022/11/26 11:33:14;;;;;;;6.60;4.55;;;;;;;;;;4995363;28;20046;-78
2022/11/26 11:35:40;;;;;;;7.05;3.80;;;;;;;;;;4993203;28;20053;-78
2022/11/26 11:38:20;;;;;;;7.80;4.40;;;;;;;;;;4996688;28;20100;-77
2022/11/26 11:40:46;;;;;;;9.95;5.03;;;;;;;;;;4993894;28;20050;-77
2022/11/26 11:43:15;;;;;;;6.88;4.13;;;;;;;;;;5003087;28;20048;-79
2022/11/26 11:45:42;;;;;;;9.95;4.72;;;;;;;;;;4986754;28;20057;-78
2022/11/26 11:48:45;;;;;;;6.28;4.65;;;;;;;;;;5001425;28;20037;-78
2022/11/26 11:51:21;;;;;;;9.73;3.92;;;;;;;;;;4985552;28;20206;-78
2022/11/26 11:53:56;;;;;;;11.23;5.40;;;;;;;;;;4995833;28;20074;-78
2022/11/26 11:56:25;;;;;;;6.82;5.18;;;;;;;;;;4997652;28;20555;-78
2022/11/26 11:58:54;;;;;;;5.38;3.67;;;;;;;;;;4995126;28;20045;-78
2022/11/26 12:01:39;;;;;;;9.65;4.15;;;;;;;;;;5004330;28;20042;-78
2022/11/26 12:04:25;;;;;;;11.93;4.32;;;;;;;;;;4997225;28;20042;-78
2022/11/26 12:07:05;;;;;;;10.55;5.53;;;;;;;;;;4994252;28;20527;-77
2022/11/26 12:09:34;;;;;;;7.95;4.18;;;;;;;;;;4997514;28;20557;-78
2022/11/26 12:12:03;;;;;;;9.38;4.05;;;;;;;;;;5003165;28;20476;-78
2022/11/26 12:14:41;;;;;;;8.70;3.53;;;;;;;;;;4995958;28;20574;-78
2022/11/26 12:17:13;;;;;;;7.88;3.58;;;;;;;;;;4995086;28;20035;-77
2022/11/26 12:19:41;;;;;;;8.27;4.72;;;;;;;;;;5003995;28;20124;-77
2022/11/26 12:22:10;;;;;;;8.93;4.05;;;;;;;;;;4987916;28;20046;-77
2022/11/26 12:24:43;;;;;;;8.35;5.18;;;;;;;;;;4991973;28;20043;-79
2022/11/26 12:27:23;;;;;;;10.52;4.47;;;;;;;;;;4992402;28;20048;-80
2022/11/26 12:29:55;;;;;;;9.25;3.90;;;;;;;;;;4988987;28;20075;-79
2022/11/26 12:32:27;;;;;;;10.32;3.88;;;;;;;;;;4992704;28;20046;-83
2022/11/26 12:34:55;;;;;;;13.10;5.03;;;;;;;;;;4989908;28;20070;-80
2022/11/26 12:37:27;;;;;;;11.55;4.35;;;;;;;;;;4990711;28;20166;-81
2022/11/26 12:39:56;;;;;;;12.15;5.53;;;;;;;;;;4986843;28;20048;-80
2022/11/26 12:42:33;;;;;;;9.23;5.05;;;;;;;;;;4993159;28;20042;-79
2022/11/26 12:45:12;;;;;;;7.95;4.78;;;;;;;;;;4992234;28;20039;-82
2022/11/26 12:47:40;;;;;;;8.73;4.38;;;;;;;;;;4988959;28;20050;-78
2022/11/26 12:50:25;;;;;;;9.82;4.97;;;;;;;;;;4994174;28;20066;-78
2022/11/26 12:53:00;;;;;;;10.57;4.75;;;;;;;;;;4984310;28;20169;-80
2022/11/26 12:55:35;;;;;;;11.57;4.97;;;;;;;;;;4991763;28;20046;-77
2022/11/26 12:58:04;;;;;;;8.77;4.93;;;;;;;;;;4989979;28;20722;-78
2022/11/26 13:00:34;;;;;;;11.27;4.80;;;;;;;;;;4980745;28;20042;-79
2022/11/26 13:03:00;;;;;;;9.20;4.63;;;;;;;;;;4993055;28;20152;-80
2022/11/26 13:05:35;;;;;;;11.43;6.25;;;;;;;;;;4992742;28;20039;-80
2022/11/26 13:08:26;;;;;;;13.18;5.03;;;;;;;;;;4992456;28;20058;-80
2022/11/26 13:11:03;;;;;;;12.43;5.15;;;;;;;;;;4991627;28;20546;-80
2022/11/26 13:13:29;;;;;;;12.60;5.75;;;;;;;;;;4999059;28;20067;-79
2022/11/26 13:16:05;;;;;;;12.35;6.60;;;;;;;;;;4998674;28;20544;-80
2022/11/26 13:18:34;;;;;;;15.13;5.65;;;;;;;;;;4996818;28;20061;-80
2022/11/26 13:21:03;;;;;;;15.07;6.93;;;;;;;;;;4988887;28;20062;-79
2022/11/26 13:23:37;;;;;;;8.73;5.82;;;;;;;;;;4996253;28;20078;-81
2022/11/26 13:26:21;;;;;;;11.13;5.55;;;;;;;;;;4989300;28;20193;-81
2022/11/26 13:28:47;;;;;;;9.57;4.93;;;;;;;;;;4991253;28;20051;-80
2022/11/26 13:31:32;;;;;;;10.35;4.82;;;;;;;;;;4998713;28;20054;-80
2022/11/26 13:34:06;;;;;;;9.73;4.43;;;;;;;;;;4989397;28;20038;-80
2022/11/26 13:36:47;;;;;;;14.48;5.65;;;;;;;;;;4994809;28;21549;-80
2022/11/26 13:39:13;;;;;;;14.15;4.97;;;;;;;;;;4992438;28;20042;-84
2022/11/26 13:41:51;;;;;;;11.32;5.38;;;;;;;;;;4988465;28;20035;-80
2022/11/26 13:44:36;;;;;;;12.15;5.97;;;;;;;;;;4988145;28;20101;-80
2022/11/26 13:47:11;;;;;;;14.63;5.80;;;;;;;;;;4982594;28;20050;-78
2022/11/26 13:49:43;;;;;;;10.23;5.68;;;;;;;;;;4999452;28;20046;-78
2022/11/26 13:52:19;;;;;;;9.93;4.63;;;;;;;;;;4980382;28;20043;-78
2022/11/26 13:54:48;;;;;;;11.80;5.72;;;;;;;;;;4997401;28;20591;-78
2022/11/26 13:57:17;;;;;;;11.00;5.45;;;;;;;;;;5003803;28;20050;-78
2022/11/26 13:59:54;;;;;;;14.02;5.97;;;;;;;;;;4987971;28;20070;-79
2022/11/26 14:02:32;;;;;;;13.05;5.72;;;;;;;;;;4989867;28;20496;-77
2022/11/26 14:04:59;;;;;;;26.02;7.50;;;;;;;;;;4993063;28;20042;-78
2022/11/26 14:07:25;;;;;;;20.52;6.38;;;;;;;;;;4994071;28;20101;-78
2022/11/26 14:09:54;;;;;;;14.32;6.10;;;;;;;;;;4998601;28;20049;-78
2022/11/26 14:12:21;;;;;;;11.93;5.70;;;;;;;;;;5028922;28;20050;-79
2022/11/26 14:14:47;;;;;;;13.23;6.82;;;;;;;;;;5000087;28;20949;-79
2022/11/26 14:17:20;;;;;;;11.23;5.88;;;;;;;;;;4997513;28;20074;-80
2022/11/26 14:19:55;;;;;;;15.75;7.18;;;;;;;;;;5009942;28;20114;-77
2022/11/26 14:22:21;;;;;;;10.30;5.05;;;;;;;;;;5000596;28;20042;-78
2022/11/26 14:24:50;;;;;;;16.48;6.22;;;;;;;;;;5000241;28;20092;-78
2022/11/26 14:27:16;;;;;;;17.35;7.22;;;;;;;;;;4994099;28;20226;-78
2022/11/26 14:29:43;;;;;;;17.30;5.63;;;;;;;;;;5002775;28;20042;-78
2022/11/26 14:32:17;;;;;;;14.05;6.20;;;;;;;;;;4994509;28;20047;-78
2022/11/26 14:34:48;;;;;;;12.18;6.18;;;;;;;;;;4991861;28;21058;-78
2022/11/26 14:37:15;;;;;;;12.98;6.88;;;;;;;;;;4993295;28;20062;-78
2022/11/26 14:39:41;;;;;;;11.73;5.95;;;;;;;;;;4986207;28;20050;-78
2022/11/26 14:42:14;;;;;;;13.00;6.53;;;;;;;;;;4989889;28;20113;-78
2022/11/26 14:44:40;;;;;;;21.42;6.97;;;;;;;;;;5000013;28;20050;-78
2022/11/26 14:47:20;;;;;;;12.27;6.70;;;;;;;;;;4988301;28;20047;-78
2022/11/26 14:49:46;;;;;;;12.00;5.88;;;;;;;;;;4988786;28;20464;-77